Metar Cercanos

 

LEPA - Palma De Mallorc, Spain
Distance from station: ONO 38km
Actualización: Thu, 09-Dec-2021 8:30am CET
Parcialmente nuboso
Parcialmente nuboso
 Viento del NO
Viento: NO 22 km/h
Temperatura: 11°C
Rocío: 4°C
Humedad: 62%
Barómetro: 1015 hPa
Clouds: Parcialmente nuboso
Visibility: 10 km
Cloud details: Few Clouds 610 m
Few Clouds 914 m
Parcialmente nuboso 1280 m
2021/12/09 07:30 LEPA 090730Z 32012KT 280V350 9999 FEW020 FEW030TCU SCT042 11/04 Q1015 NOSIG
LEMH - Mahon/Menorca Is, Spain
Distance from station: ENE 105km
Actualización: Thu, 09-Dec-2021 8:30am CET
Few Clouds
Few Clouds
 Viento del ONO
Viento: ONO 13 km/h
Temperatura: 8°C
Sensación frio: 6°C
Rocío: 3°C
Humedad: 71%
Barómetro: 1012 hPa
Clouds: Few Clouds
Visibility: 10 km
Cloud details: Few Clouds 1067 m
Few Clouds 1158 m
2021/12/09 07:30 LEMH 090730Z 29007KT 250V330 9999 FEW035 FEW038TCU 08/03 Q1012
 
LEIB - Ibiza/Es Codola, Spain
Distance from station: OSO 165km
Actualización: Thu, 09-Dec-2021 8:30am CET
Few Clouds
Few Clouds
 Viento del ONO
Viento: ONO 30 km/h
Temperatura: 12°C
Rocío: 2°C
Humedad: 51%
Barómetro: 1017 hPa
Clouds: Few Clouds
Visibility: 10 km
Cloud details: Few Clouds 1219 m
2021/12/09 07:30 LEIB 090730Z 29016KT 250V340 9999 FEW040 12/02 Q1017 NOSIG
LEBL - Barcelona Airpor, Spain
Distance from station: NNO 225km
Actualización: Thu, 09-Dec-2021 8:30am CET
Despejado
Despejado
 Viento del NO
Viento: NO 26 km/h
Temperatura: 7°C
Sensación frio: 3°C
Rocío: 0°C
Humedad: 61%
Barómetro: 1013 hPa
Resumen: Despejado
Visibility: greater than 10 km
2021/12/09 07:30 LEBL 090730Z 32014KT CAVOK 07/M00 Q1013 NOSIG
 
LEVC - Valencia (civ/Mi, Spain
Distance from station: NO 188km
Actualización: Thu, 09-Dec-2021 8:30am CET
Few Clouds
Few Clouds
 Viento del OSO
Viento: OSO 22 km/h
Temperatura: 9°C
Sensación frio: 6°C
Rocío: 1°C
Humedad: 58%
Barómetro: 1019 hPa
Clouds: Few Clouds
Visibility: 10 km
Cloud details: Few Clouds 1219 m
2021/12/09 07:30 LEVC 090730Z 25012KT 9999 FEW040 09/01 Q1019 NOSIG
LEGE - Gerona/Costa Bra, Spain
Distance from station: N 276km
Actualización: Thu, 09-Dec-2021 8:30am CET
Few Clouds
Few Clouds
 Viento del calm
Viento: Calma
Temperatura: -1°C
Rocío: -2°C
Humedad: 93%
Barómetro: 1012 hPa
Clouds: Few Clouds
Visibility: 10 km
Cloud details: Few Clouds 914 m
2021/12/09 07:30 LEGE 090730Z 00000KT 9999 FEW030 M01/M02 Q1012
 
LEAL - Alicante/El Alte, Spain
Distance from station: OSO 344km
Actualización: Thu, 09-Dec-2021 8:30am CET
Despejado
Despejado
 Viento del O
Viento: O 13 km/h
Temperatura: 8°C
Sensación frio: 6°C
Rocío: 1°C
Humedad: 62%
Barómetro: 1021 hPa
Resumen: Despejado
Visibility: greater than 10 km
2021/12/09 07:30 LEAL 090730Z 28007KT CAVOK 08/01 Q1021 NOSIG
LEAM - Almeria Airport, Spain
Distance from station: SSO 56km
Actualización: Thu, 09-Dec-2021 8:30am CET
Despejado
Despejado
 Viento del NO
Viento: NO 22 km/h, Racha: 44 km/h
Temperatura: 13°C
Rocío: 0°C
Humedad: 41%
Barómetro: 1021 hPa
Resumen: Despejado
Visibility: greater than 10 km
2021/12/09 07:30 LEAM 090730Z 31012G24KT CAVOK 13/M00 Q1021
 
LEZG - Zaragoza (mil/Ci, Spain
Distance from station: NO 431km
Actualización: Thu, 09-Dec-2021 8:30am CET
Muy nuboso
Muy nuboso
 Viento del ONO
Viento: ONO 15 km/h
Temperatura: 5°C
Sensación frio: 2°C
Rocío: 2°C
Humedad: 81%
Barómetro: 1017 hPa
Clouds: Muy nuboso
Visibility: 10 km
Cloud details: Muy nuboso 2134 m
2021/12/09 07:30 LEZG 090730Z 29008KT 250V320 9999 BKN070 05/02 Q1017
LEMD - Madrid/Barajas, Spain
Distance from station: ONO 234km
Actualización: Thu, 09-Dec-2021 8:30am CET
Few Clouds
Few Clouds
 Viento del OSO
Viento: OSO 28 km/h
Temperatura: 7°C
Sensación frio: 3°C
Rocío: 1°C
Humedad: 66%
Barómetro: 1019 hPa
Clouds: Few Clouds
Visibility: 10 km
Cloud details: Few Clouds 1829 m
2021/12/09 07:30 LEMD 090730Z 24015KT 9999 FEW060 07/01 Q1019 NOSIG
 
LEGR - Granada Airport, Spain
Distance from station: OSO 62km
Actualización: Thu, 09-Dec-2021 8:30am CET
Few Clouds
Few Clouds
 Viento del OSO
Viento: OSO 11 km/h
Temperatura: 4°C
Sensación frio: 1°C
Rocío: 2°C
Humedad: 87%
Barómetro: 1025 hPa
Clouds: Few Clouds
Visibility: 10 km
Cloud details: Few Clouds 1067 m
2021/12/09 07:30 LEGR 090730Z 24006KT 230V290 9999 FEW035 04/02 Q1025
LEMG - Malaga (civ/Mil), Spain
Distance from station: OSO 227km
Actualización: Thu, 09-Dec-2021 8:30am CET
Few Clouds
Few Clouds
 Viento del ONO
Viento: ONO 24 km/h
Temperatura: 10°C
Sensación frio: 7°C
Rocío: 5°C
Humedad: 71%
Barómetro: 1026 hPa
Clouds: Few Clouds
Visibility: 10 km
Cloud details: Few Clouds 1219 m
2021/12/09 07:30 LEMG 090730Z 29013KT 9999 FEW040 10/05 Q1026 NOSIG
 
LEZL - Sevilla (civ/Mil, Spain
Distance from station: S 318km
Actualización: Thu, 09-Dec-2021 8:30am CET
Despejado
Despejado
 Viento del SSE
Viento: SSE 6 km/h
Temperatura: 6°C
Rocío: 5°C
Humedad: 93%
Barómetro: 1027 hPa
Resumen: Despejado
Visibility: greater than 10 km
2021/12/09 07:30 LEZL 090730Z 16003KT 110V200 CAVOK 06/05 Q1027 NOSIG
LEVT - Vitoria, Spain
Distance from station: NO 226km
Actualización: Thu, 09-Dec-2021 8:30am CET
Lluvia débil, Muy nuboso
Lluvia débil, Muy nuboso
 Viento del SO
Viento: SO 17 km/h
Temperatura: 3°C
Sensación frio: -1°C
Rocío: 2°C
Humedad: 93%
Barómetro: 1017 hPa
Resumen: Lluvia débil
Clouds: Muy nuboso
Visibility: 10 km
Cloud details: Few Clouds 457 m
Muy nuboso 671 m
2021/12/09 07:30 LEVT 090730Z 22009KT 9999 -RA FEW015 BKN022 03/02 Q1017 RERA
 
LEBB - Bilbao/Sondica, Spain
Distance from station: NNO 235km
Actualización: Thu, 09-Dec-2021 8:30am CET
Lluvia, Muy nuboso
Lluvia, Muy nuboso
 Viento del ESE
Viento: ESE 6 km/h
Temperatura: 8°C
Rocío: 8°C
Humedad: 100%
Barómetro: 1016 hPa
Resumen: Lluvia
Clouds: Muy nuboso
Visibility: 7 km
Cloud details: Few Clouds 549 m
Parcialmente nuboso 671 m
Muy nuboso 1219 m
2021/12/09 07:30 LEBB 090730Z 11003KT 080V150 7000 RA FEW018 SCT022 BKN040 08/08 Q1016 TEMPO 3000 SHRA SCT030TCU
LESO - San Sebastian/Fu, Spain
Distance from station: N 231km
Actualización: Thu, 09-Dec-2021 8:30am CET
Lluvia, Muy nuboso
Lluvia, Muy nuboso
 Viento del SO
Viento: SO 6 km/h
Temperatura: 8°C
Rocío: 8°C
Humedad: 100%
Barómetro: 1016 hPa
Resumen: Lluvia
Clouds: Muy nuboso
Visibility: 6 km
Cloud details: Few Clouds 396 m
Muy nuboso 945 m
2021/12/09 07:30 LESO 090730Z 23003KT 180V290 6000 RA FEW013 BKN031 08/08 Q1016
 
LEVD - Valladolid(Mil/C, Spain
Distance from station: ONO 239km
Actualización: Thu, 09-Dec-2021 8:30am CET
Lluvia débil, Cubierto
Lluvia débil, Cubierto
 Viento del O
Viento: O 30 km/h
Temperatura: 4°C
Sensación frio: -1°C
Rocío: 4°C
Humedad: 100%
Barómetro: 1019 hPa
Resumen: Lluvia débil
Clouds: Cubierto
Visibility: 7 km
Cloud details: Muy nuboso 183 m
Cubierto 1067 m
2021/12/09 07:30 LEVD 090730Z 26016KT 7000 -RA BKN006 OVC035 04/04 Q1019
LESA - Salamanca (civ/M, Spain
Distance from station: ONO 349km
Actualización: Thu, 09-Dec-2021 8:30am CET
Mist, Muy nuboso
Mist, Muy nuboso
 Viento del OSO
Viento: OSO 20 km/h
Temperatura: 5°C
Sensación frio: 1°C
Rocío: 4°C
Humedad: 93%
Barómetro: 1022 hPa
Resumen: Mist
Clouds: Muy nuboso
Visibility: 4 km
Cloud details: Muy nuboso 274 m
Muy nuboso 518 m
2021/12/09 07:30 LESA 090730Z 25011KT 4000 BR BKN009 BKN017 05/04 Q1022
 
LEXJ - Santander/Paraya, Spain
Distance from station: NNO 247km
Actualización: Thu, 09-Dec-2021 8:30am CET
Lluvia, Cubierto
Lluvia, Cubierto
 Viento del SO
Viento: SO 17 km/h
Temperatura: 9°C
Sensación frio: 7°C
Rocío: 8°C
Humedad: 94%
Barómetro: 1016 hPa
Resumen: Lluvia
Clouds: Cubierto
Visibility: 7 km
Cloud details: Cubierto 610 m
2021/12/09 07:30 LEXJ 090730Z 23009KT 200V260 7000 RA OVC020 09/08 Q1016
LEAS - Asturias/Aviles, Spain
Distance from station: NO 214km
Actualización: Thu, 09-Dec-2021 8:30am CET
Rain showers, Muy nuboso
Rain showers, Muy nuboso
 Viento del O
Viento: O 48 km/h, Racha: 67 km/h
Temperatura: 12°C
Rocío: 10°C
Humedad: 88%
Barómetro: 1018 hPa
Resumen: Rain Showers
Clouds: Muy nuboso
Visibility: 5 km
Cloud details: Parcialmente nuboso 457 m
Muy nuboso 732 m
2021/12/09 07:30 LEAS 090730Z 27026G36KT 5000 SHRA SCT015TCU BKN024 12/10 Q1018 TEMPO 3000
 
LECO - La Coruna/Alvedr, Spain
Distance from station: ONO 222km
Actualización: Thu, 09-Dec-2021 8:30am CET
Lluvia débil, Muy nuboso
Lluvia débil, Muy nuboso
 Viento del ONO
Viento: ONO 17 km/h
Temperatura: 12°C
Rocío: 11°C
Humedad: 94%
Barómetro: 1022 hPa
Resumen: Lluvia débil
Clouds: Muy nuboso
Visibility: 3 km
Cloud details: Few Clouds 335 m
Parcialmente nuboso 701 m
Muy nuboso 1219 m
2021/12/09 07:30 LECO 090730Z 29009KT 240V010 3000 -RA FEW011 SCT023 BKN040 12/11 Q1022 TEMPO RA
LEVX - Vigo/Peinador, Spain
Distance from station: O 214km
Actualización: Thu, 09-Dec-2021 8:30am CET
Muy nuboso
Muy nuboso
 Viento del ONO
Viento: ONO 11 km/h
Temperatura: 11°C
Rocío: 10°C
Humedad: 94%
Barómetro: 1025 hPa
Clouds: Muy nuboso
Visibility: 10 km
Cloud details: Parcialmente nuboso 366 m
Muy nuboso 823 m
Muy nuboso 1006 m
2021/12/09 07:30 LEVX 090730Z 30006KT 270V340 9999 SCT012 BKN027 BKN033 11/10 Q1025 RERA NOSIG